Anthony, Kansas
Current Conditions -  °F | °C
As of 9:30 AM on Friday 24 Oct 2014 (Local Time) from KAVK Reporting Station
Haze Haze  
Wind Chill: 59°   Ceiling: Unl
Heat Index: 59°   Visibility: 6mi
Dew Point: 59°   Wind: 7mph
Humidity: 100%   Direction: 180°S
Pressure: 30.09"   Gusts: NA
Location:  37.15°N, 98.03°W
Report Text: KAVK 241430Z AUTO 18006KT 6SM BR CLR 15/15 A3009 RMK AO2
Loading
Personal Weather Stations






























Interactive Weather Map
Tropical Storm Tracking
New forecast layout! Learn more

10-Day Weather Forecast

Advertisements
Track Severe Weather on mobile